Map

Track Data

SID SEASON NUMBER BASIN SUBBASIN NAME ISO_TIME NATURE LAT LON WMO_WIND WMO_PRES WMO_AGENCY TRACK_TYPE DIST2LAND LANDFALL IFLAG USA_AGENCY USA_ATCF_ID USA_LAT USA_LON USA_RECORD USA_STATUS USA_WIND USA_PRES USA_SSHS USA_R34_NE USA_R34_SE USA_R34_SW USA_R34_NW USA_R50_NE USA_R50_SE USA_R50_SW USA_R50_NW USA_R64_NE USA_R64_SE USA_R64_SW USA_R64_NW USA_POCI USA_ROCI USA_RMW USA_EYE TOKYO_LAT TOKYO_LON TOKYO_GRADE TOKYO_WIND TOKYO_PRES TOKYO_R50_DIR TOKYO_R50_LONG TOKYO_R50_SHORT TOKYO_R30_DIR TOKYO_R30_LONG TOKYO_R30_SHORT TOKYO_LAND CMA_LAT CMA_LON CMA_CAT CMA_WIND CMA_PRES HKO_LAT HKO_LON HKO_CAT HKO_WIND HKO_PRES NEWDELHI_LAT NEWDELHI_LON NEWDELHI_GRADE NEWDELHI_WIND NEWDELHI_PRES NEWDELHI_CI NEWDELHI_DP NEWDELHI_POCI REUNION_LAT REUNION_LON REUNION_TYPE REUNION_WIND REUNION_PRES REUNION_TNUM REUNION_CI REUNION_RMW REUNION_R34_NE REUNION_R34_SE REUNION_R34_SW REUNION_R34_NW REUNION_R50_NE REUNION_R50_SE REUNION_R50_SW REUNION_R50_NW REUNION_R64_NE REUNION_R64_SE REUNION_R64_SW REUNION_R64_NW BOM_LAT BOM_LON BOM_TYPE BOM_WIND BOM_PRES BOM_TNUM BOM_CI BOM_RMW BOM_R34_NE BOM_R34_SE BOM_R34_SW BOM_R34_NW BOM_R50_NE BOM_R50_SE BOM_R50_SW BOM_R50_NW BOM_R64_NE BOM_R64_SE BOM_R64_SW BOM_R64_NW BOM_ROCI BOM_POCI BOM_EYE BOM_POS_METHOD BOM_PRES_METHOD NADI_LAT NADI_LON NADI_CAT NADI_WIND NADI_PRES WELLINGTON_LAT WELLINGTON_LON WELLINGTON_WIND WELLINGTON_PRES DS824_LAT DS824_LON DS824_STAGE DS824_WIND DS824_PRES TD9636_LAT TD9636_LON TD9636_STAGE TD9636_WIND TD9636_PRES TD9635_LAT TD9635_LON TD9635_WIND TD9635_PRES TD9635_ROCI NEUMANN_LAT NEUMANN_LON NEUMANN_CLASS NEUMANN_WIND NEUMANN_PRES MLC_LAT MLC_LON MLC_CLASS MLC_WIND MLC_PRES USA_GUST BOM_GUST BOM_GUST_PER REUNION_GUST REUNION_GUST_PER USA_SEAHGT USA_SEARAD_NE USA_SEARAD_SE USA_SEARAD_SW USA_SEARAD_NW STORM_SPEED STORM_DIR
2022094S17163 2022 21 SP MM FILI 2022-04-04 06:00:00 NR -16.8000 162.600 PROVISIONAL 411 395 O_____________ tcvitals SP232022 -16.8000 162.600 35 999 0 100 100 20 30 1006 190 35 6 218
2022094S17163 2022 21 SP MM FILI 2022-04-04 09:00:00 NR -17.0222 162.422 PROVISIONAL 400 385 P_____________ SP232022 -17.0222 162.422 37 998 0 117 105 87 1006 190 32 7 224
2022094S17163 2022 21 SP MM FILI 2022-04-04 12:00:00 NR -17.3000 162.100 PROVISIONAL 386 380 O_____________ tcvitals SP232022 -17.3000 162.100 39 997 0 135 110 145 1006 190 30 10 233
2022094S17163 2022 21 SP MM FILI 2022-04-04 15:00:00 NR -17.6454 161.558 PROVISIONAL 392 390 P_____________ SP232022 -17.6454 161.558 42 996 0 115 105 87 1005 205 32 12 240
2022094S17163 2022 21 SP MM FILI 2022-04-04 18:00:00 NR -17.9000 161.000 PROVISIONAL 414 414 O_____________ tcvitals SP232022 -17.9000 161.000 45 996 0 95 100 55 30 1005 220 35 10 257
2022094S17163 2022 21 SP MM FILI 2022-04-04 21:00:00 NR -17.8573 160.565 PROVISIONAL 446 446 P_____________ SP232022 -17.8573 160.565 45 996 0 147 130 77 25 1006 235 35 6 280
2022094S17163 2022 21 SP MM FILI 2022-04-05 00:00:00 NR -17.8000 160.400 PROVISIONAL 470 431 O_____________ tcvitals SP232022 -17.8000 160.400 45 996 0 200 160 100 20 1007 250 35 2 140
2022094S17163 2022 21 SP MM FILI 2022-04-05 03:00:00 NR -18.0128 160.705 PROVISIONAL 431 377 P_____________ SP232022 -18.0128 160.705 45 996 0 200 155 85 20 1005 240 57 8 127
2022094S17163 2022 21 SP MM FILI 2022-04-05 06:00:00 NR -18.3000 161.100 PROVISIONAL 377 364 O_____________ tcvitals SP232022 -18.3000 161.100 45 996 0 200 150 70 20 1003 230 80 6 145
2022094S17163 2022 21 SP MM FILI 2022-04-05 09:00:00 NR -18.5372 161.085 PROVISIONAL 364 352 P_____________ SP232022 -18.5372 161.085 42 997 0 147 112 70 40 1003 235 65 4 0
2022094S17163 2022 21 SP MM FILI 2022-04-05 12:00:00 NR -18.7000 161.100 PROVISIONAL 352 317 O_____________ tcvitals SP232022 -18.7000 161.100 39 998 0 95 75 70 60 1003 240 50 4 108
2022094S17163 2022 21 SP MM FILI 2022-04-05 15:00:00 NR -18.6705 161.528 PROVISIONAL 317 275 P_____________ SP232022 -18.6705 161.528 45 994 0 92 80 67 65 1003 255 45 9 90
2022094S17163 2022 21 SP MM FILI 2022-04-05 18:00:00 NR -18.7000 162.000 PROVISIONAL 275 231 O_____________ tcvitals SP232022 -18.7000 162.000 51 990 0 90 85 65 70 1003 270 40 7 124
2022094S17163 2022 21 SP MM FILI 2022-04-05 21:00:00 NR -19.0772 162.158 PROVISIONAL 231 198 P_____________ SP232022 -19.0772 162.158 52 989 0 108 95 67 75 1004 252 40 9 161
2022094S17163 2022 21 SP MM FILI 2022-04-06 00:00:00 NR -19.5000 162.300 PROVISIONAL 198 156 O_____________ tcvitals SP232022 -19.5000 162.300 54 989 0 126 105 70 80 1005 235 40 8 139
2022094S17163 2022 21 SP MM FILI 2022-04-06 03:00:00 NR -19.6425 162.678 PROVISIONAL 156 109 P_____________ SP232022 -19.6427 162.678 54 989 0 130 115 77 85 1005 237 40 8 112
2022094S17163 2022 21 SP MM FILI 2022-04-06 06:00:00 NR -19.8000 163.100 PROVISIONAL 109 63 O_____________ tcvitals SP232022 -19.8000 163.100 54 990 0 135 126 85 90 1005 240 40 9 128
2022094S17163 2022 21 SP MM FILI 2022-04-06 09:00:00 NR -20.1917 163.428 PROVISIONAL 63 43 P_____________ SP232022 -20.1899 163.430 54 990 0 102 113 77 70 1004 235 32 11 148
2022094S17163 2022 21 SP MM FILI 2022-04-06 12:00:00 NR -20.7030 163.697 PROVISIONAL 53 53 O_____________ tcvitals SP232022 -20.7000 163.700 54 990 0 70 100 70 50 1004 230 25 12 157
2022094S17163 2022 21 SP MM FILI 2022-04-06 15:00:00 NR -21.2592 163.921 PROVISIONAL 76 76 P_____________ SP232022 -21.2574 163.923 54 989 0 72 95 65 62 1004 242 25 12 161
2022094S17163 2022 21 SP MM FILI 2022-04-06 18:00:00 NR -21.8000 164.100 PROVISIONAL 94 94 O_____________ tcvitals SP232022 -21.8000 164.100 54 989 0 75 90 60 75 1004 255 25 10 162
2022094S17163 2022 21 SP MM FILI 2022-04-06 21:00:00 NR -22.2447 164.258 PROVISIONAL 108 108 P_____________ SP232022 -22.2449 164.258 52 991 0 75 90 57 75 1005 250 25 9 161
2022094S17163 2022 21 SP MM FILI 2022-04-07 00:00:00 NR -22.6000 164.400 PROVISIONAL 143 143 O_____________ tcvitals SP232022 -22.6000 164.400 51 993 0 75 90 55 75 1006 245 25 7 155
2022094S17163 2022 21 SP MM FILI 2022-04-07 03:00:00 NR -22.8500 164.565 PROVISIONAL 162 162 P_____________ SP232022 -22.8500 164.565 51 993 0 77 82 52 67 1006 245 25 6 151
2022094S17163 2022 21 SP MM FILI 2022-04-07 06:00:00 NR -23.1000 164.700 PROVISIONAL 175 175 O_____________ tcvitals SP232022 -23.1000 164.700 51 993 0 80 75 50 60 1006 245 25 6 164
2022094S17163 2022 21 SP MM FILI 2022-04-07 09:00:00 NR -23.4700 164.758 PROVISIONAL 205 205 P_____________ SP232022 -23.4700 164.758 48 994 0 80 75 50 60 1006 245 25 8 174
2022094S17163 2022 21 SP MM FILI 2022-04-07 12:00:00 NR -23.9000 164.800 PROVISIONAL 241 241 O_____________ tcvitals SP232022 -23.9000 164.800 45 995 0 80 75 50 60 1006 245 25 9 175
2022094S17163 2022 21 SP MM FILI 2022-04-07 15:00:00 NR -24.3798 164.848 PROVISIONAL 285 280 P_____________ SP232022 -24.3798 164.848 45 995 0 80 75 50 60 1006 232 25 9 169
2022094S17163 2022 21 SP MM FILI 2022-04-07 18:00:00 NR -24.8000 165.000 PROVISIONAL 313 313 O_____________ tcvitals SP232022 -24.8000 165.000 45 995 0 80 75 50 60 1006 220 25 8 144
2022094S17163 2022 21 SP MM FILI 2022-04-07 21:00:00 NR -25.0228 165.370 PROVISIONAL 318 318 P_____________ SP232022 -25.0228 165.370 40 998 0 82 90 62 62 1007 210 25 8 119
2022094S17163 2022 21 SP MM FILI 2022-04-08 00:00:00 NR -25.2000 165.800 PROVISIONAL 326 323 O_____________ tcvitals SP232022 -25.2000 165.800 35 1001 0 85 105 75 65 1008 200 25 8 126
2022094S17163 2022 21 SP MM FILI 2022-04-08 03:00:00 NR -25.5072 166.100 PROVISIONAL 351 351 P_____________ SP232022 -25.5072 166.100 35 1000 0 87 102 87 60 1008 200 25 8 138
2022094S17163 2022 21 SP MM FILI 2022-04-08 06:00:00 NR -25.8000 166.400 PROVISIONAL 381 380 O_____________ tcvitals SP232022 -25.8000 166.400 35 1000 0 90 100 100 55 1008 200 25 8 129
2022094S17163 2022 21 SP MM FILI 2022-04-08 09:00:00 NR -25.9841 166.757 PROVISIONAL 402 402 P_____________ SP232022 -25.9841 166.757 37 998 0 82 122 115 62 1008 200 30 8 113
2022094S17163 2022 21 SP MM FILI 2022-04-08 12:00:00 NR -26.1000 167.200 PROVISIONAL 414 414 O_____________ tcvitals SP232022 -26.1000 167.200 39 996 0 75 145 130 70 1008 200 35 9 103
2022094S17163 2022 21 SP MM FILI 2022-04-08 15:00:00 NR -26.1958 167.749 PROVISIONAL 432 432 P_____________ SP232022 -26.1958 167.749 -5 11 98
2022094S17163 2022 21 SP MM FILI 2022-04-08 18:00:00 NR -26.2419 168.372 PROVISIONAL 450 450 O_____________ tcvitals SP232022 -26.2419 168.373 -5 12 93
2022094S17163 2022 21 SP MM FILI 2022-04-08 21:00:00 NR -26.2496 169.034 PROVISIONAL 474 474 P_____________ SP232022 -26.2496 169.034 -5 12 88
2022094S17163 2022 21 SP MM FILI 2022-04-09 00:00:00 NR -26.2093 169.674 PROVISIONAL 510 510 O_____________ tcvitals SP232022 -26.2093 169.674 -5 11 84
2022094S17163 2022 21 SP MM FILI 2022-04-09 03:00:00 NR -26.1365 170.247 PROVISIONAL 531 531 P_____________ SP232022 -26.1393 170.260 -5 9 79
2022094S17163 2022 21 SP MM FILI 2022-04-09 06:00:00 NR -26.0319 170.706 PROVISIONAL 556 556 O_____________ tcvitals SP232022 -26.0319 170.706 -5 7 69
2022094S17163 2022 21 SP MM FILI 2022-04-09 09:00:00 NR -25.8976 170.951 PROVISIONAL 570 563 P_____________ SP232022 -25.8976 170.951 -5 4 50
2022094S17163 2022 21 SP MM FILI 2022-04-09 12:00:00 NR -25.7498 171.077 PROVISIONAL 563 O_____________ tcvitals SP232022 -25.7498 171.077 -5 4 37

Digital Typhoon Data and Search

About IBTrACS Database

This database is a web-friendly format of International Best Track Archive for Climate Stewardship (IBTrACS), a global best track data archive curated by NOAA dating back to 1842.

Updated: 2022-05-24